Time;durP1;ratioP1;P1;durP2;ratioP2;P2;SDS_P1;SDS_P2;PMS_P1;PMS_P2;Temp;Humidity;BMP_temperature;BMP_pressure;BME280_temperature;BME280_humidity;BME280_pressure;Samples;Min_cycle;Max_cycle;Signal;HPM_P1;HPM_P2
2023/09/21 00:01:11;;;;;;;1.85;1.20;;;17.10;99.90;;;;;;5027110;28;20585;-64
2023/09/21 00:03:39;;;;;;;1.98;0.98;;;17.10;99.90;;;;;;5030222;28;20042;-64
2023/09/21 00:06:05;;;;;;;3.58;1.23;;;17.10;99.90;;;;;;5011645;28;20392;-64
2023/09/21 00:08:31;;;;;;;2.72;1.05;;;17.10;99.90;;;;;;5012704;28;20077;-64
2023/09/21 00:11:01;;;;;;;3.70;1.42;;;17.10;99.90;;;;;;5012343;28;20053;-64
2023/09/21 00:13:28;;;;;;;1.25;1.05;;;17.10;99.90;;;;;;5030662;28;20454;-63
2023/09/21 00:16:02;;;;;;;1.30;1.02;;;17.10;99.90;;;;;;4998263;28;20085;-63
2023/09/21 00:18:31;;;;;;;4.00;1.20;;;17.10;99.90;;;;;;5029607;28;20118;-63
2023/09/21 00:21:02;;;;;;;2.63;1.40;;;17.10;99.90;;;;;;5013405;28;20041;-64
2023/09/21 00:23:30;;;;;;;2.88;1.40;;;17.10;99.90;;;;;;5029567;28;20049;-64
2023/09/21 00:26:00;;;;;;;1.02;1.02;;;17.20;99.90;;;;;;5029246;28;20107;-64
2023/09/21 00:28:27;;;;;;;2.58;1.25;;;17.20;99.90;;;;;;5030066;28;20048;-63
2023/09/21 00:30:57;;;;;;;2.10;1.30;;;17.20;99.90;;;;;;5029210;28;20411;-64
2023/09/21 00:33:28;;;;;;;3.05;1.25;;;17.20;99.90;;;;;;5030413;28;20542;-64
2023/09/21 00:35:55;;;;;;;2.33;1.50;;;17.20;99.90;;;;;;5028042;28;20513;-64
2023/09/21 00:38:22;;;;;;;2.70;1.15;;;17.20;99.90;;;;;;5030991;28;20044;-64
2023/09/21 00:40:48;;;;;;;2.25;1.15;;;17.20;99.90;;;;;;5028603;28;20049;-63
2023/09/21 00:43:25;;;;;;;2.88;1.20;;;17.20;99.90;;;;;;5013141;28;20056;-63
2023/09/21 00:45:57;;;;;;;2.13;1.15;;;17.20;99.90;;;;;;5029913;28;20501;-64
2023/09/21 00:48:25;;;;;;;2.55;1.30;;;17.20;99.90;;;;;;5004827;28;20058;-64
2023/09/21 00:50:54;;;;;;;1.83;1.20;;;17.20;99.90;;;;;;5030058;28;20068;-64
2023/09/21 00:53:22;;;;;;;1.40;1.30;;;17.30;99.90;;;;;;5028810;28;20049;-64
2023/09/21 00:55:51;;;;;;;1.80;1.10;;;17.30;99.90;;;;;;5029922;28;20130;-64
2023/09/21 00:58:18;;;;;;;4.80;1.40;;;17.40;99.90;;;;;;5023870;28;20510;-64
2023/09/21 01:00:46;;;;;;;1.98;0.98;;;17.50;99.90;;;;;;5011908;28;20064;-63
2023/09/21 01:03:13;;;;;;;2.30;0.98;;;17.40;99.90;;;;;;5017738;28;20052;-63
2023/09/21 01:05:40;;;;;;;2.13;1.13;;;17.50;99.90;;;;;;5009839;28;20053;-64
2023/09/21 01:08:11;;;;;;;1.42;1.15;;;17.50;99.90;;;;;;5005929;28;20574;-64
2023/09/21 01:10:38;;;;;;;1.05;0.82;;;17.50;99.90;;;;;;5001576;28;20137;-64
2023/09/21 01:13:04;;;;;;;2.45;1.15;;;17.50;99.90;;;;;;5009228;28;20064;-63
2023/09/21 01:15:32;;;;;;;1.85;1.10;;;17.50;99.90;;;;;;5028362;28;20119;-64
2023/09/21 01:17:57;;;;;;;2.10;1.20;;;17.40;99.90;;;;;;5017770;28;20061;-64
2023/09/21 01:20:27;;;;;;;3.83;0.95;;;17.40;99.90;;;;;;5029280;28;20045;-63
2023/09/21 01:23:08;;;;;;;3.70;1.20;;;17.40;99.90;;;;;;5028438;28;20068;-63
2023/09/21 01:25:36;;;;;;;1.77;1.30;;;17.30;99.90;;;;;;5012025;28;20414;-63
2023/09/21 01:28:02;;;;;;;2.15;1.33;;;17.30;99.90;;;;;;4993856;28;20376;-64
2023/09/21 01:30:28;;;;;;;2.47;1.20;;;17.20;99.90;;;;;;5028043;28;20115;-63
2023/09/21 01:32:53;;;;;;;1.90;1.10;;;17.20;99.90;;;;;;5027504;28;20073;-63
2023/09/21 01:35:23;;;;;;;4.35;1.23;;;17.20;99.90;;;;;;5003278;28;20057;-63
2023/09/21 01:37:48;;;;;;;1.20;0.88;;;17.20;99.90;;;;;;5005379;28;20076;-64
2023/09/21 01:40:17;;;;;;;4.78;1.23;;;17.20;99.90;;;;;;5008222;28;20479;-64
2023/09/21 01:42:44;;;;;;;3.03;0.90;;;17.20;99.90;;;;;;5029539;28;20041;-63
2023/09/21 01:45:10;;;;;;;2.05;1.10;;;17.20;99.90;;;;;;5027604;28;20132;-64
2023/09/21 01:47:36;;;;;;;1.70;0.90;;;17.20;99.90;;;;;;5011862;28;20128;-64
2023/09/21 01:50:06;;;;;;;1.63;1.15;;;17.20;99.90;;;;;;5012926;28;20067;-64
2023/09/21 01:52:34;;;;;;;2.67;1.05;;;17.20;99.90;;;;;;5029332;28;20054;-63
2023/09/21 01:55:06;;;;;;;1.70;0.98;;;17.20;99.90;;;;;;5010426;28;20100;-63
2023/09/21 01:57:33;;;;;;;2.72;1.27;;;17.20;99.90;;;;;;5028004;28;20084;-64
2023/09/21 02:00:11;;;;;;;1.50;1.35;;;17.20;99.90;;;;;;5027163;28;20049;-64
2023/09/21 02:02:37;;;;;;;1.20;1.10;;;17.20;99.90;;;;;;5026920;28;20478;-64
2023/09/21 02:05:04;;;;;;;2.33;1.20;;;17.20;99.90;;;;;;5025620;28;20080;-64
2023/09/21 02:07:30;;;;;;;5.15;1.33;;;17.30;99.90;;;;;;5009421;28;20049;-64
2023/09/21 02:09:56;;;;;;;1.15;0.80;;;17.30;99.90;;;;;;5010464;28;20111;-63
2023/09/21 02:12:23;;;;;;;2.40;1.20;;;17.40;99.90;;;;;;5027148;28;20042;-63
2023/09/21 02:14:49;;;;;;;4.97;0.90;;;17.40;99.90;;;;;;5027818;28;20088;-63
2023/09/21 02:17:15;;;;;;;1.55;1.15;;;17.40;99.90;;;;;;5029065;28;20077;-64
2023/09/21 02:19:41;;;;;;;1.23;1.10;;;17.40;99.90;;;;;;5026941;28;20087;-64
2023/09/21 02:22:07;;;;;;;4.32;1.30;;;17.40;99.90;;;;;;5009008;28;20057;-64
2023/09/21 02:24:33;;;;;;;2.90;1.45;;;17.40;99.90;;;;;;5025711;28;20484;-64
2023/09/21 02:26:58;;;;;;;2.15;1.35;;;17.40;99.90;;;;;;5028225;28;20042;-64
2023/09/21 02:29:24;;;;;;;1.20;1.10;;;17.40;99.90;;;;;;5009403;28;20812;-64
2023/09/21 02:31:50;;;;;;;2.20;1.00;;;17.50;99.90;;;;;;5007209;28;20053;-64
2023/09/21 02:34:16;;;;;;;1.77;1.15;;;17.50;99.90;;;;;;4999166;28;20061;-63
2023/09/21 02:36:42;;;;;;;1.20;1.10;;;17.50;99.90;;;;;;5009165;28;20045;-63
2023/09/21 02:39:08;;;;;;;5.07;1.15;;;17.50;99.90;;;;;;5010169;28;20049;-63
2023/09/21 02:41:34;;;;;;;7.43;0.98;;;17.50;99.90;;;;;;5026564;28;20092;-63
2023/09/21 02:44:01;;;;;;;1.58;1.25;;;17.50;99.90;;;;;;5020551;28;20048;-64
2023/09/21 02:46:29;;;;;;;1.92;1.15;;;17.40;99.90;;;;;;5021033;28;20053;-64
2023/09/21 02:48:55;;;;;;;3.72;1.00;;;17.40;99.90;;;;;;5027861;28;20053;-64
2023/09/21 02:51:22;;;;;;;1.23;1.10;;;17.40;99.90;;;;;;5009988;28;20056;-63
2023/09/21 02:53:47;;;;;;;1.00;0.80;;;17.40;99.90;;;;;;5022681;28;20049;-64
2023/09/21 02:56:14;;;;;;;1.70;1.13;;;17.50;99.90;;;;;;5002191;28;20507;-63
2023/09/21 02:58:40;;;;;;;1.63;1.10;;;17.50;99.90;;;;;;5026166;28;20076;-64
2023/09/21 03:01:06;;;;;;;1.13;1.00;;;17.40;99.90;;;;;;5027159;28;20061;-64
2023/09/21 03:03:32;;;;;;;5.45;1.02;;;17.40;99.90;;;;;;5005642;28;20593;-63
2023/09/21 03:05:58;;;;;;;1.45;1.10;;;17.30;99.90;;;;;;5023674;28;20077;-64
2023/09/21 03:08:24;;;;;;;1.00;1.00;;;17.30;99.90;;;;;;5008925;28;20503;-63
2023/09/21 03:10:52;;;;;;;2.75;1.10;;;17.30;99.90;;;;;;5024416;28;20448;-64
2023/09/21 03:13:18;;;;;;;2.08;1.30;;;17.20;99.90;;;;;;5025430;28;20054;-63
2023/09/21 03:15:45;;;;;;;1.60;0.90;;;17.20;99.90;;;;;;5026411;28;20050;-64
2023/09/21 03:18:11;;;;;;;0.70;0.70;;;17.20;99.90;;;;;;5027435;28;20053;-64
2023/09/21 03:20:37;;;;;;;3.03;1.25;;;17.20;99.90;;;;;;5026385;28;20045;-64
2023/09/21 03:23:10;;;;;;;0.95;0.82;;;17.20;99.90;;;;;;5008960;28;20057;-64
2023/09/21 03:25:43;;;;;;;1.52;0.98;;;17.10;99.90;;;;;;5008775;28;20081;-64
2023/09/21 03:28:15;;;;;;;1.17;0.88;;;17.10;99.90;;;;;;5025499;28;20506;-64
2023/09/21 03:30:43;;;;;;;2.25;1.02;;;17.10;99.90;;;;;;5027346;28;20543;-64
2023/09/21 03:33:09;;;;;;;0.80;0.80;;;17.10;99.90;;;;;;5007250;28;20040;-64
2023/09/21 03:35:38;;;;;;;1.10;1.10;;;17.00;99.90;;;;;;5027505;28;20046;-64
2023/09/21 03:38:14;;;;;;;1.77;0.80;;;17.00;99.90;;;;;;5025496;28;20157;-64
2023/09/21 03:40:41;;;;;;;3.08;1.25;;;17.00;99.90;;;;;;5026474;28;20110;-64
2023/09/21 03:43:10;;;;;;;2.83;0.98;;;16.90;99.90;;;;;;5024860;28;20062;-64
2023/09/21 03:45:37;;;;;;;1.98;0.88;;;16.90;99.90;;;;;;5026882;28;20053;-64
2023/09/21 03:48:06;;;;;;;0.95;0.68;;;16.90;99.90;;;;;;5009565;28;20049;-64
2023/09/21 03:50:32;;;;;;;2.03;1.00;;;16.90;99.90;;;;;;5008101;28;20041;-64
2023/09/21 03:52:59;;;;;;;2.47;1.10;;;16.90;99.90;;;;;;5025949;28;20045;-64
2023/09/21 03:55:26;;;;;;;6.25;1.20;;;16.90;99.90;;;;;;5007702;28;20088;-64
2023/09/21 03:57:52;;;;;;;1.35;1.10;;;16.90;99.90;;;;;;5016633;28;20447;-64
2023/09/21 04:00:41;;;;;;;1.75;0.90;;;16.80;99.90;;;;;;5023110;28;20068;-64
2023/09/21 04:03:06;;;;;;;1.70;1.05;;;16.80;99.90;;;;;;5021450;28;20076;-64
2023/09/21 04:05:35;;;;;;;1.35;1.02;;;16.80;99.90;;;;;;5006185;28;20496;-64
2023/09/21 04:08:02;;;;;;;1.67;1.20;;;16.70;99.90;;;;;;5016874;28;20419;-64
2023/09/21 04:10:28;;;;;;;2.80;0.90;;;16.70;99.90;;;;;;5026684;28;20492;-64
2023/09/21 04:12:56;;;;;;;1.08;0.90;;;16.70;99.90;;;;;;5025775;28;20041;-64
2023/09/21 04:15:23;;;;;;;1.38;0.68;;;16.70;99.90;;;;;;5008894;28;20053;-64
2023/09/21 04:17:49;;;;;;;2.65;0.98;;;16.70;99.90;;;;;;5012511;28;20041;-64
2023/09/21 04:20:16;;;;;;;2.22;0.90;;;16.60;99.90;;;;;;5025823;28;20140;-64
2023/09/21 04:22:43;;;;;;;1.80;0.90;;;16.60;99.90;;;;;;5008088;28;20050;-64
2023/09/21 04:25:11;;;;;;;1.10;0.70;;;16.60;99.90;;;;;;5018383;28;20076;-64
2023/09/21 04:27:39;;;;;;;1.30;1.15;;;16.60;99.90;;;;;;5027212;28;20052;-64
2023/09/21 04:30:08;;;;;;;1.65;1.13;;;16.60;99.90;;;;;;5025347;28;20500;-64
2023/09/21 04:32:35;;;;;;;8.38;1.08;;;16.60;99.90;;;;;;5026252;28;20053;-64
2023/09/21 04:35:05;;;;;;;1.40;0.70;;;16.60;99.90;;;;;;4984232;28;20392;-63
2023/09/21 04:37:33;;;;;;;1.15;0.98;;;16.60;99.90;;;;;;5008384;28;20492;-63
2023/09/21 04:40:04;;;;;;;3.28;1.00;;;16.50;99.90;;;;;;5027094;28;20045;-64
2023/09/21 04:42:30;;;;;;;1.08;0.98;;;16.60;99.90;;;;;;5026535;28;20431;-64
2023/09/21 04:44:58;;;;;;;0.90;0.82;;;16.50;99.90;;;;;;5029433;28;20454;-64
2023/09/21 04:47:24;;;;;;;5.25;0.85;;;16.50;99.90;;;;;;5028551;28;20084;-63
2023/09/21 04:49:50;;;;;;;1.48;0.80;;;16.50;99.90;;;;;;5030468;28;20348;-63
2023/09/21 04:52:16;;;;;;;2.55;1.10;;;16.50;99.90;;;;;;5021445;28;20125;-64
2023/09/21 04:54:42;;;;;;;1.90;1.08;;;16.50;99.90;;;;;;5015470;28;20132;-63
2023/09/21 04:57:07;;;;;;;0.90;0.90;;;16.50;99.90;;;;;;5014158;28;20042;-63
2023/09/21 04:59:35;;;;;;;0.85;0.80;;;16.50;99.90;;;;;;5021949;28;20051;-64
2023/09/21 05:02:00;;;;;;;2.75;0.98;;;16.40;99.90;;;;;;5018394;28;20056;-63
2023/09/21 05:04:26;;;;;;;2.50;1.00;;;16.50;99.90;;;;;;4965975;28;20440;-63
2023/09/21 05:06:52;;;;;;;3.75;1.30;;;16.40;99.90;;;;;;5022164;28;20052;-63
2023/09/21 05:09:18;;;;;;;3.78;1.02;;;16.50;99.90;;;;;;4996851;28;20050;-63
2023/09/21 05:11:46;;;;;;;1.20;1.02;;;16.50;99.90;;;;;;5017823;28;20500;-63
2023/09/21 05:14:13;;;;;;;1.85;1.20;;;16.50;99.90;;;;;;5029649;28;20119;-63
2023/09/21 05:16:40;;;;;;;3.50;0.93;;;16.50;99.90;;;;;;5026656;28;20037;-64
2023/09/21 05:19:06;;;;;;;1.63;1.10;;;16.50;99.90;;;;;;5029747;28;20053;-64
2023/09/21 05:21:33;;;;;;;1.10;1.00;;;16.50;99.90;;;;;;5010234;28;20043;-63
2023/09/21 05:23:59;;;;;;;2.33;0.95;;;16.50;99.90;;;;;;5030267;28;20103;-63
2023/09/21 05:26:26;;;;;;;1.50;1.00;;;16.50;99.90;;;;;;5027644;28;20041;-63
2023/09/21 05:28:52;;;;;;;1.27;1.08;;;16.50;99.90;;;;;;5020775;28;20045;-63
2023/09/21 05:31:18;;;;;;;2.15;1.20;;;16.50;99.90;;;;;;5025751;28;20041;-62
2023/09/21 05:33:43;;;;;;;1.00;0.80;;;16.50;99.90;;;;;;5017426;28;20041;-63
2023/09/21 05:36:09;;;;;;;1.40;0.88;;;16.50;99.90;;;;;;5029578;28;20083;-64
2023/09/21 05:38:37;;;;;;;1.00;0.80;;;16.50;99.90;;;;;;5025861;28;20510;-63
2023/09/21 05:41:04;;;;;;;1.52;1.05;;;16.60;99.90;;;;;;5012069;28;20104;-63
2023/09/21 05:43:30;;;;;;;1.50;1.15;;;16.60;99.90;;;;;;5027566;28;20044;-63
2023/09/21 05:45:56;;;;;;;3.53;0.95;;;16.60;99.90;;;;;;5011574;28;20057;-64
2023/09/21 05:48:22;;;;;;;1.80;0.90;;;16.60;99.90;;;;;;5025883;28;20041;-63
2023/09/21 05:50:49;;;;;;;1.55;1.15;;;16.60;99.90;;;;;;5011098;28;20130;-63
2023/09/21 05:53:15;;;;;;;0.80;0.80;;;16.70;99.90;;;;;;5028884;28;20053;-63
2023/09/21 05:55:44;;;;;;;1.10;1.00;;;16.70;99.90;;;;;;5027462;28;20515;-63
2023/09/21 05:58:10;;;;;;;1.77;1.02;;;16.80;99.90;;;;;;5027651;28;20572;-63
2023/09/21 06:00:36;;;;;;;0.95;0.80;;;16.90;99.90;;;;;;5026793;28;20073;-63
2023/09/21 06:03:02;;;;;;;1.35;1.05;;;16.90;99.90;;;;;;5028779;28;20136;-63
2023/09/21 06:05:31;;;;;;;2.28;1.00;;;17.00;99.90;;;;;;5026786;28;20041;-64
2023/09/21 06:07:58;;;;;;;3.08;0.95;;;17.10;99.90;;;;;;5018737;28;20042;-63
2023/09/21 06:10:30;;;;;;;1.73;0.95;;;17.20;99.90;;;;;;5023092;28;20060;-64
2023/09/21 06:12:56;;;;;;;1.15;1.05;;;17.30;99.90;;;;;;5002656;28;20128;-63
2023/09/21 06:15:22;;;;;;;1.15;0.90;;;17.30;99.90;;;;;;5020616;28;20121;-64
2023/09/21 06:17:48;;;;;;;0.95;0.95;;;17.40;99.90;;;;;;5024437;28;20041;-64
2023/09/21 06:20:15;;;;;;;0.77;0.70;;;17.50;99.90;;;;;;5010936;28;20053;-63
2023/09/21 06:22:41;;;;;;;4.70;1.05;;;17.60;99.90;;;;;;5024952;28;20110;-63
2023/09/21 06:25:07;;;;;;;1.08;1.00;;;17.60;99.90;;;;;;5021579;28;20037;-63
2023/09/21 06:27:33;;;;;;;1.83;0.98;;;17.60;99.90;;;;;;5008915;28;20510;-63
2023/09/21 06:29:59;;;;;;;2.50;1.00;;;17.70;99.90;;;;;;4992856;28;20049;-63
2023/09/21 06:32:25;;;;;;;2.30;1.15;;;17.80;99.90;;;;;;5026101;28;20073;-63
2023/09/21 06:34:51;;;;;;;2.05;1.00;;;17.80;99.90;;;;;;5011353;28;20500;-65
2023/09/21 06:37:21;;;;;;;2.58;1.02;;;17.90;99.90;;;;;;5023987;28;20119;-64
2023/09/21 06:39:46;;;;;;;1.75;1.13;;;17.90;99.90;;;;;;5021033;28;20123;-65
2023/09/21 06:42:15;;;;;;;1.58;0.98;;;17.90;99.90;;;;;;5023782;28;20045;-65
2023/09/21 06:44:41;;;;;;;3.00;1.20;;;18.00;99.90;;;;;;5009017;28;20594;-65
2023/09/21 06:47:07;;;;;;;2.88;1.05;;;18.00;99.90;;;;;;5022099;28;20419;-65
2023/09/21 06:49:35;;;;;;;2.78;1.40;;;18.10;99.90;;;;;;5027134;28;20050;-65
2023/09/21 06:52:02;;;;;;;3.45;1.20;;;18.10;99.90;;;;;;5022356;28;20049;-65
2023/09/21 06:54:29;;;;;;;2.00;1.20;;;18.20;99.90;;;;;;5028379;28;20052;-65
2023/09/21 06:57:04;;;;;;;3.22;1.25;;;18.20;99.90;;;;;;5020235;28;20049;-65
2023/09/21 06:59:34;;;;;;;2.63;1.33;;;18.20;99.90;;;;;;5028275;28;20042;-65
2023/09/21 07:02:00;;;;;;;5.68;1.30;;;18.30;99.90;;;;;;5006422;28;20577;-65
2023/09/21 07:04:28;;;;;;;1.60;1.20;;;18.30;99.90;;;;;;5004107;28;20128;-65
2023/09/21 07:06:54;;;;;;;2.20;1.48;;;18.40;99.90;;;;;;5007378;28;20100;-65
2023/09/21 07:09:20;;;;;;;1.63;1.17;;;18.40;99.90;;;;;;5006107;28;20054;-65
2023/09/21 07:11:49;;;;;;;1.20;1.10;;;18.50;99.90;;;;;;5007243;28;20049;-63
2023/09/21 07:14:15;;;;;;;1.05;0.93;;;18.60;99.90;;;;;;4988569;28;20634;-62
2023/09/21 07:16:41;;;;;;;2.08;1.08;;;18.60;99.90;;;;;;4974252;28;20038;-62
2023/09/21 07:19:06;;;;;;;1.58;1.10;;;18.60;99.40;;;;;;5005524;28;20514;-63
2023/09/21 07:21:32;;;;;;;1.20;1.10;;;18.60;99.90;;;;;;5006295;28;20143;-63
2023/09/21 07:23:58;;;;;;;1.60;1.15;;;18.60;99.90;;;;;;5006439;28;20136;-63
2023/09/21 07:26:24;;;;;;;0.88;0.88;;;18.70;99.90;;;;;;5005474;28;20069;-64
2023/09/21 07:28:52;;;;;;;1.55;0.98;;;18.70;99.90;;;;;;5005376;28;20108;-64
2023/09/21 07:31:17;;;;;;;4.00;1.60;;;18.70;99.90;;;;;;5002093;28;20053;-64
2023/09/21 07:33:43;;;;;;;5.10;1.08;;;18.70;99.70;;;;;;4983427;28;20046;-64
2023/09/21 07:36:11;;;;;;;1.90;1.15;;;18.70;99.90;;;;;;5004392;28;20104;-64
2023/09/21 07:38:37;;;;;;;3.25;1.17;;;18.70;99.50;;;;;;4983882;28;20056;-64
2023/09/21 07:41:06;;;;;;;2.17;1.30;;;18.70;99.90;;;;;;4977824;28;20043;-63
2023/09/21 07:43:33;;;;;;;1.60;1.50;;;18.80;99.90;;;;;;4988379;28;20049;-65
2023/09/21 07:45:59;;;;;;;1.58;1.38;;;18.80;99.90;;;;;;4976769;28;20054;-63
2023/09/21 07:48:26;;;;;;;2.83;1.88;;;18.80;99.30;;;;;;4986073;28;20124;-64
2023/09/21 07:50:55;;;;;;;2.63;2.42;;;18.80;99.70;;;;;;5003888;28;20046;-63
2023/09/21 07:53:21;;;;;;;2.75;1.98;;;18.80;99.80;;;;;;5005769;28;20048;-64
2023/09/21 07:55:46;;;;;;;2.70;2.33;;;18.90;99.90;;;;;;5005657;28;20565;-64
2023/09/21 07:58:12;;;;;;;1.85;1.00;;;18.90;99.80;;;;;;5006250;28;20104;-63
2023/09/21 08:00:38;;;;;;;2.10;1.08;;;18.90;99.90;;;;;;4987835;28;20083;-64
2023/09/21 08:03:04;;;;;;;1.17;0.93;;;19.00;99.90;;;;;;5023993;28;20092;-64
2023/09/21 08:05:32;;;;;;;1.70;1.23;;;19.00;99.80;;;;;;5021457;28;20049;-64
2023/09/21 08:07:57;;;;;;;2.38;1.00;;;19.00;99.90;;;;;;5024858;28;20045;-64
2023/09/21 08:10:23;;;;;;;4.03;0.85;;;19.00;99.60;;;;;;5023339;28;20140;-64
2023/09/21 08:12:49;;;;;;;1.92;1.15;;;19.10;99.90;;;;;;5016583;28;20087;-64
2023/09/21 08:15:27;;;;;;;1.50;1.15;;;19.20;99.90;;;;;;5025541;28;20431;-64
2023/09/21 08:17:53;;;;;;;0.88;0.88;;;19.30;99.90;;;;;;4996154;28;20103;-64
2023/09/21 08:20:22;;;;;;;1.50;1.20;;;19.40;99.50;;;;;;5031172;28;20041;-64
2023/09/21 08:22:49;;;;;;;1.63;1.08;;;19.60;98.40;;;;;;5027678;28;20743;-64
2023/09/21 08:25:15;;;;;;;2.08;1.40;;;19.70;96.80;;;;;;4996880;28;20057;-64
2023/09/21 08:27:40;;;;;;;2.08;0.82;;;19.80;95.90;;;;;;4995066;28;20049;-64
2023/09/21 08:30:09;;;;;;;2.63;1.10;;;19.90;94.00;;;;;;5028743;28;20092;-64
2023/09/21 08:32:34;;;;;;;4.63;2.35;;;19.90;91.10;;;;;;5025987;28;20966;-64
2023/09/21 08:35:04;;;;;;;2.00;1.80;;;19.90;91.50;;;;;;5030220;28;20049;-63
2023/09/21 08:37:31;;;;;;;1.70;1.25;;;20.00;91.40;;;;;;5012381;28;20057;-64
2023/09/21 08:39:57;;;;;;;0.88;0.88;;;20.00;90.60;;;;;;5007347;28;20044;-64
2023/09/21 08:42:23;;;;;;;0.98;0.95;;;19.90;91.20;;;;;;5021035;28;20057;-63
2023/09/21 08:44:50;;;;;;;4.53;1.00;;;19.90;90.90;;;;;;5026648;28;20045;-63
2023/09/21 08:47:16;;;;;;;2.17;1.10;;;19.80;91.50;;;;;;5029820;28;20482;-63
2023/09/21 08:49:46;;;;;;;1.70;1.13;;;19.80;91.50;;;;;;5015023;28;20058;-63
2023/09/21 08:52:13;;;;;;;1.85;1.17;;;19.70;92.70;;;;;;5029178;28;20044;-63
2023/09/21 08:54:40;;;;;;;4.35;2.00;;;19.70;93.60;;;;;;5028839;28;20111;-63
2023/09/21 08:57:13;;;;;;;1.10;1.00;;;19.70;95.10;;;;;;5010248;28;20077;-64
2023/09/21 08:59:44;;;;;;;1.20;1.10;;;19.70;97.20;;;;;;5029099;28;20092;-64
2023/09/21 09:02:14;;;;;;;2.58;0.90;;;19.70;98.40;;;;;;5003510;28;20076;-64
2023/09/21 09:04:41;;;;;;;1.52;0.93;;;19.70;99.20;;;;;;5006642;28;20084;-64
2023/09/21 09:07:07;;;;;;;1.20;1.10;;;19.60;99.30;;;;;;5009572;28;20045;-64
2023/09/21 09:09:34;;;;;;;1.15;1.05;;;19.50;98.70;;;;;;5026887;28;20037;-64
2023/09/21 09:11:59;;;;;;;2.08;1.15;;;19.40;98.80;;;;;;5027211;28;20050;-64
2023/09/21 09:14:25;;;;;;;4.90;1.10;;;19.40;99.90;;;;;;5026296;28;20111;-64
2023/09/21 09:16:52;;;;;;;1.63;1.23;;;19.30;99.90;;;;;;5027089;28;20121;-64
2023/09/21 09:19:18;;;;;;;3.55;1.38;;;19.20;99.90;;;;;;5017884;28;20557;-64
2023/09/21 09:21:49;;;;;;;1.25;1.00;;;19.20;99.90;;;;;;5015805;28;20042;-64
2023/09/21 09:24:16;;;;;;;1.27;1.08;;;19.20;99.90;;;;;;5013681;28;20056;-64
2023/09/21 09:26:42;;;;;;;1.13;1.00;;;19.10;99.90;;;;;;4998673;28;20060;-64
2023/09/21 09:29:09;;;;;;;2.33;1.23;;;19.10;99.90;;;;;;5017269;28;20468;-63
2023/09/21 09:31:40;;;;;;;1.60;1.30;;;19.00;99.90;;;;;;5020135;28;20056;-64
2023/09/21 09:34:06;;;;;;;2.08;1.52;;;19.00;99.90;;;;;;5020995;28;20048;-64
2023/09/21 09:36:35;;;;;;;1.88;1.23;;;19.00;99.90;;;;;;5014378;28;20057;-64
2023/09/21 09:39:00;;;;;;;0.88;0.88;;;18.90;99.90;;;;;;5020700;28;20108;-64
2023/09/21 09:41:31;;;;;;;1.30;1.20;;;18.90;99.90;;;;;;4983356;28;20046;-63
2023/09/21 09:44:01;;;;;;;1.08;0.98;;;18.80;99.90;;;;;;5021183;28;20045;-64
2023/09/21 09:46:26;;;;;;;;;;;18.80;99.90;;;;;;5016438;28;20136;-64
2023/09/21 09:48:57;;;;;;;2.42;1.38;;;18.70;99.90;;;;;;4996852;28;20021;-64
2023/09/21 09:51:41;;;;;;;1.95;1.10;;;18.70;99.90;;;;;;5014675;28;20042;-64
2023/09/21 09:54:11;;;;;;;2.40;1.10;;;18.70;99.90;;;;;;5012582;28;20054;-63
2023/09/21 09:56:44;;;;;;;1.75;1.00;;;18.70;99.90;;;;;;5012629;28;20373;-64
2023/09/21 09:59:14;;;;;;;1.35;1.30;;;18.60;99.90;;;;;;5018069;28;20054;-64
2023/09/21 10:01:44;;;;;;;1.73;1.50;;;18.60;99.90;;;;;;5015190;28;20081;-64
2023/09/21 10:04:10;;;;;;;1.50;1.27;;;18.60;99.90;;;;;;5002536;28;20518;-64
2023/09/21 10:06:36;;;;;;;1.40;1.30;;;18.60;99.90;;;;;;5005726;28;20049;-64
2023/09/21 10:09:09;;;;;;;1.42;1.23;;;18.50;99.90;;;;;;4994206;28;20049;-64
2023/09/21 10:11:36;;;;;;;2.25;1.33;;;18.50;99.90;;;;;;5027530;28;20042;-64
2023/09/21 10:14:03;;;;;;;2.67;1.45;;;18.50;99.90;;;;;;5010848;28;20041;-64
2023/09/21 10:16:31;;;;;;;2.65;1.60;;;18.50;99.90;;;;;;5026799;28;20107;-64
2023/09/21 10:19:00;;;;;;;2.10;1.60;;;18.50;99.90;;;;;;5009944;28;20049;-64
2023/09/21 10:21:38;;;;;;;3.35;1.40;;;18.40;99.90;;;;;;5026724;28;20053;-64
2023/09/21 10:24:13;;;;;;;1.58;1.45;;;18.40;99.90;;;;;;5023501;28;20073;-65
2023/09/21 10:26:45;;;;;;;3.28;1.60;;;18.40;99.90;;;;;;5022723;28;20045;-64
2023/09/21 10:29:12;;;;;;;5.07;1.70;;;18.30;99.90;;;;;;4991561;28;20053;-65
2023/09/21 10:31:42;;;;;;;1.50;1.13;;;18.30;99.90;;;;;;5007158;28;20048;-65
2023/09/21 10:34:26;;;;;;;1.95;1.50;;;18.30;99.90;;;;;;5021932;28;20049;-65
2023/09/21 10:37:00;;;;;;;1.40;1.27;;;18.20;99.90;;;;;;4996283;28;20064;-67
2023/09/21 10:39:28;;;;;;;2.90;1.25;;;18.10;99.90;;;;;;4992389;28;20042;-66
2023/09/21 10:42:17;;;;;;;1.60;0.90;;;18.10;99.90;;;;;;5023376;28;20049;-66
2023/09/21 10:44:52;;;;;;;;;;;17.80;99.90;;;;;;5025699;28;20104;-65
2023/09/21 10:47:48;;;;;;;0.60;0.45;;;17.60;99.90;;;;;;5021765;28;19928;-65
2023/09/21 10:50:32;;;;;;;3.88;3.42;;;17.40;99.90;;;;;;5018118;28;20569;-65
2023/09/21 10:52:58;;;;;;;3.03;2.60;;;17.20;99.90;;;;;;5020753;28;20124;-65
2023/09/21 10:55:25;;;;;;;3.75;3.47;;;17.00;99.90;;;;;;4982136;28;20395;-66
2023/09/21 10:57:53;;;;;;;3.53;3.20;;;16.90;99.90;;;;;;4990622;28;20053;-65
2023/09/21 11:00:21;;;;;;;3.92;3.63;;;16.80;99.90;;;;;;5018331;28;20056;-65
2023/09/21 11:02:50;;;;;;;3.58;3.28;;;16.80;99.90;;;;;;5025072;28;20059;-66
2023/09/21 11:05:17;;;;;;;2.75;2.50;;;16.60;99.90;;;;;;4999360;28;20405;-66
2023/09/21 11:07:47;;;;;;;3.90;2.65;;;16.50;99.90;;;;;;5015386;28;20126;-66
2023/09/21 11:10:14;;;;;;;9.27;5.90;;;16.40;99.90;;;;;;5020899;28;20042;-66
2023/09/21 11:12:40;;;;;;;5.07;4.68;;;16.40;99.90;;;;;;5024170;28;20044;-66
2023/09/21 11:15:16;;;;;;;2.38;1.20;;;16.30;99.90;;;;;;5025976;28;20135;-66
2023/09/21 11:17:43;;;;;;;2.85;2.03;;;16.30;99.90;;;;;;5025491;28;20467;-66
2023/09/21 11:20:14;;;;;;;1.73;1.63;;;16.20;99.90;;;;;;5026052;28;20048;-66
2023/09/21 11:22:43;;;;;;;4.95;3.55;;;16.20;99.90;;;;;;5026298;28;20085;-66
2023/09/21 11:25:12;;;;;;;4.00;3.70;;;16.20;99.90;;;;;;5025727;28;20089;-66
2023/09/21 11:27:41;;;;;;;4.83;3.20;;;16.20;99.90;;;;;;5009793;28;20045;-66
2023/09/21 11:30:13;;;;;;;1.48;1.38;;;16.40;99.90;;;;;;5026068;28;20056;-66
2023/09/21 11:32:47;;;;;;;1.45;0.50;;;16.40;99.90;;;;;;5015498;28;20037;-67
2023/09/21 11:35:18;;;;;;;0.68;0.50;;;16.40;99.90;;;;;;5014588;28;20067;-66
2023/09/21 11:37:46;;;;;;;3.25;1.20;;;16.30;99.90;;;;;;5025966;28;20506;-67
2023/09/21 11:40:13;;;;;;;4.75;4.35;;;16.30;99.90;;;;;;5009870;28;20485;-67
2023/09/21 11:42:46;;;;;;;5.32;3.42;;;16.20;99.90;;;;;;5000670;28;20038;-67
2023/09/21 11:45:19;;;;;;;4.30;4.00;;;16.20;99.90;;;;;;5026010;28;20140;-67
2023/09/21 11:47:56;;;;;;;4.57;3.30;;;16.20;99.90;;;;;;5026885;28;20057;-66
2023/09/21 11:50:34;;;;;;;2.80;2.63;;;16.30;99.90;;;;;;5025906;28;20124;-67
2023/09/21 11:53:07;;;;;;;2.45;0.98;;;16.20;99.90;;;;;;5029857;28;20041;-66
2023/09/21 11:55:33;;;;;;;4.18;3.78;;;16.20;99.90;;;;;;5016237;28;20142;-66
2023/09/21 11:58:11;;;;;;;1.13;1.10;;;16.30;99.90;;;;;;5031290;28;20580;-67
2023/09/21 12:00:44;;;;;;;2.10;1.90;;;16.40;99.90;;;;;;5028847;28;20077;-66
2023/09/21 12:03:23;;;;;;;5.40;4.93;;;16.40;99.90;;;;;;4993748;28;20507;-67
2023/09/21 12:05:49;;;;;;;4.43;1.70;;;16.50;99.90;;;;;;5011997;28;20133;-66
2023/09/21 12:08:16;;;;;;;0.80;0.80;;;16.50;99.90;;;;;;5022426;28;20125;-67
2023/09/21 12:11:01;;;;;;;6.45;5.28;;;16.50;99.90;;;;;;5030917;28;20053;-67
2023/09/21 12:13:27;;;;;;;4.32;3.20;;;16.50;99.90;;;;;;5011108;28;20450;-67
2023/09/21 12:15:55;;;;;;;1.33;1.30;;;16.40;99.90;;;;;;5030121;28;20670;-66
2023/09/21 12:18:22;;;;;;;2.05;0.50;;;16.40;99.90;;;;;;5030881;28;20045;-66
2023/09/21 12:20:56;;;;;;;1.45;0.77;;;16.50;99.90;;;;;;5029312;28;20037;-66
2023/09/21 12:23:25;;;;;;;0.40;0.40;;;16.50;99.90;;;;;;5030650;28;20525;-66
2023/09/21 12:25:51;;;;;;;1.67;0.70;;;16.40;99.90;;;;;;5026358;28;20064;-67
2023/09/21 12:28:19;;;;;;;0.63;0.55;;;16.40;99.90;;;;;;5005993;28;20037;-66
2023/09/21 12:30:47;;;;;;;1.63;0.70;;;16.40;99.90;;;;;;5027166;28;20415;-66
2023/09/21 12:33:17;;;;;;;1.10;0.82;;;16.50;99.90;;;;;;5010182;28;20058;-66
2023/09/21 12:35:43;;;;;;;0.50;0.50;;;16.60;99.90;;;;;;5029691;28;20048;-66
2023/09/21 12:38:10;;;;;;;0.63;0.50;;;16.60;99.90;;;;;;5029256;28;20049;-66
2023/09/21 12:40:38;;;;;;;1.67;0.60;;;16.60;99.90;;;;;;5028645;28;20120;-67
2023/09/21 12:43:05;;;;;;;1.52;0.75;;;16.50;99.90;;;;;;5027801;28;20056;-66
2023/09/21 12:45:34;;;;;;;0.70;0.70;;;16.50;99.90;;;;;;5018133;28;20065;-66
2023/09/21 12:48:02;;;;;;;0.80;0.80;;;16.50;99.90;;;;;;5015261;28;20432;-67
2023/09/21 12:50:28;;;;;;;0.55;0.40;;;16.50;99.90;;;;;;5029680;28;20045;-66
2023/09/21 12:52:57;;;;;;;1.00;0.60;;;16.40;99.90;;;;;;4994189;28;20096;-67